sensor_id;sensor_type;location;lat;lon;timestamp;P1;durP1;ratioP1;P2;durP2;ratioP2
43226;SDS011;28839;52.404;9.808;2023-02-02T00:01:49;18.40;;;3.15;;
43226;SDS011;28839;52.404;9.808;2023-02-02T00:08:45;26.30;;;3.25;;
43226;SDS011;28839;52.404;9.808;2023-02-02T00:15:39;16.12;;;2.42;;
43226;SDS011;28839;52.404;9.808;2023-02-02T00:22:33;15.32;;;2.95;;
43226;SDS011;28839;52.404;9.808;2023-02-02T00:29:29;14.65;;;2.50;;
43226;SDS011;28839;52.404;9.808;2023-02-02T00:36:24;20.35;;;3.10;;
43226;SDS011;28839;52.404;9.808;2023-02-02T00:43:18;22.87;;;3.15;;
43226;SDS011;28839;52.404;9.808;2023-02-02T00:50:14;13.38;;;2.30;;
43226;SDS011;28839;52.404;9.808;2023-02-02T00:57:11;10.98;;;2.42;;
43226;SDS011;28839;52.404;9.808;2023-02-02T01:04:05;19.42;;;3.37;;
43226;SDS011;28839;52.404;9.808;2023-02-02T01:11:01;22.75;;;3.03;;
43226;SDS011;28839;52.404;9.808;2023-02-02T01:17:55;18.55;;;2.60;;
43226;SDS011;28839;52.404;9.808;2023-02-02T01:24:49;15.07;;;3.07;;
43226;SDS011;28839;52.404;9.808;2023-02-02T01:31:44;13.35;;;2.90;;
43226;SDS011;28839;52.404;9.808;2023-02-02T01:38:38;17.05;;;2.67;;
43226;SDS011;28839;52.404;9.808;2023-02-02T01:45:33;10.93;;;2.53;;
43226;SDS011;28839;52.404;9.808;2023-02-02T01:52:28;17.95;;;2.50;;
43226;SDS011;28839;52.404;9.808;2023-02-02T01:59:26;17.83;;;3.15;;
43226;SDS011;28839;52.404;9.808;2023-02-02T02:06:22;18.87;;;2.75;;
43226;SDS011;28839;52.404;9.808;2023-02-02T02:20:27;10.50;;;2.70;;
43226;SDS011;28839;52.404;9.808;2023-02-02T02:28:14;11.48;;;2.30;;
43226;SDS011;28839;52.404;9.808;2023-02-02T02:35:45;13.98;;;2.92;;
43226;SDS011;28839;52.404;9.808;2023-02-02T02:42:50;26.42;;;3.12;;
43226;SDS011;28839;52.404;9.808;2023-02-02T02:49:48;25.42;;;3.37;;
43226;SDS011;28839;52.404;9.808;2023-02-02T02:56:51;19.62;;;4.07;;
43226;SDS011;28839;52.404;9.808;2023-02-02T03:04:06;12.82;;;2.75;;
43226;SDS011;28839;52.404;9.808;2023-02-02T03:11:04;21.62;;;4.00;;
43226;SDS011;28839;52.404;9.808;2023-02-02T03:18:01;14.93;;;2.42;;
43226;SDS011;28839;52.404;9.808;2023-02-02T03:24:55;16.45;;;2.70;;
43226;SDS011;28839;52.404;9.808;2023-02-02T03:31:50;21.45;;;3.20;;
43226;SDS011;28839;52.404;9.808;2023-02-02T03:38:45;11.98;;;2.67;;
43226;SDS011;28839;52.404;9.808;2023-02-02T03:45:39;17.92;;;2.45;;
43226;SDS011;28839;52.404;9.808;2023-02-02T03:52:33;18.50;;;3.85;;
43226;SDS011;28839;52.404;9.808;2023-02-02T03:59:28;13.93;;;2.78;;
43226;SDS011;28839;52.404;9.808;2023-02-02T04:06:22;22.23;;;4.43;;
43226;SDS011;28839;52.404;9.808;2023-02-02T04:13:17;15.32;;;2.95;;
43226;SDS011;28839;52.404;9.808;2023-02-02T04:20:12;19.25;;;3.55;;
43226;SDS011;28839;52.404;9.808;2023-02-02T04:27:06;26.85;;;3.72;;
43226;SDS011;28839;52.404;9.808;2023-02-02T04:34:00;14.60;;;3.12;;
43226;SDS011;28839;52.404;9.808;2023-02-02T04:40:55;26.83;;;3.40;;
43226;SDS011;28839;52.404;9.808;2023-02-02T04:47:49;23.38;;;2.97;;
43226;SDS011;28839;52.404;9.808;2023-02-02T04:54:43;17.70;;;3.20;;
43226;SDS011;28839;52.404;9.808;2023-02-02T05:01:38;21.00;;;3.15;;
43226;SDS011;28839;52.404;9.808;2023-02-02T05:08:32;21.08;;;2.92;;
43226;SDS011;28839;52.404;9.808;2023-02-02T05:15:26;16.67;;;2.87;;
43226;SDS011;28839;52.404;9.808;2023-02-02T05:22:21;21.17;;;3.58;;
43226;SDS011;28839;52.404;9.808;2023-02-02T05:29:15;18.25;;;2.92;;
43226;SDS011;28839;52.404;9.808;2023-02-02T05:36:09;25.12;;;4.07;;
43226;SDS011;28839;52.404;9.808;2023-02-02T05:43:04;23.43;;;4.80;;
43226;SDS011;28839;52.404;9.808;2023-02-02T05:49:58;21.40;;;3.70;;
43226;SDS011;28839;52.404;9.808;2023-02-02T05:56:53;25.92;;;4.30;;
43226;SDS011;28839;52.404;9.808;2023-02-02T06:03:49;19.55;;;3.87;;
43226;SDS011;28839;52.404;9.808;2023-02-02T06:10:43;25.00;;;3.78;;
43226;SDS011;28839;52.404;9.808;2023-02-02T06:17:37;22.40;;;5.07;;
43226;SDS011;28839;52.404;9.808;2023-02-02T06:24:32;29.77;;;3.80;;
43226;SDS011;28839;52.404;9.808;2023-02-02T06:31:26;23.30;;;3.67;;
43226;SDS011;28839;52.404;9.808;2023-02-02T06:38:20;21.85;;;3.70;;
43226;SDS011;28839;52.404;9.808;2023-02-02T06:45:15;22.30;;;3.45;;
43226;SDS011;28839;52.404;9.808;2023-02-02T06:52:09;15.95;;;3.17;;
43226;SDS011;28839;52.404;9.808;2023-02-02T06:59:03;13.77;;;2.80;;
43226;SDS011;28839;52.404;9.808;2023-02-02T07:05:58;24.65;;;3.28;;
43226;SDS011;28839;52.404;9.808;2023-02-02T07:13:02;31.75;;;3.87;;
43226;SDS011;28839;52.404;9.808;2023-02-02T07:19:57;27.10;;;4.93;;
43226;SDS011;28839;52.404;9.808;2023-02-02T07:26:52;19.50;;;3.35;;
43226;SDS011;28839;52.404;9.808;2023-02-02T07:33:46;21.08;;;3.22;;
43226;SDS011;28839;52.404;9.808;2023-02-02T07:40:40;24.17;;;4.47;;
43226;SDS011;28839;52.404;9.808;2023-02-02T07:47:36;29.17;;;5.27;;
43226;SDS011;28839;52.404;9.808;2023-02-02T07:54:29;27.45;;;5.75;;
43226;SDS011;28839;52.404;9.808;2023-02-02T08:01:24;24.15;;;4.00;;
43226;SDS011;28839;52.404;9.808;2023-02-02T08:08:20;21.52;;;3.62;;
43226;SDS011;28839;52.404;9.808;2023-02-02T08:15:14;25.95;;;3.53;;
43226;SDS011;28839;52.404;9.808;2023-02-02T08:22:08;32.53;;;5.37;;
43226;SDS011;28839;52.404;9.808;2023-02-02T08:29:04;29.42;;;4.50;;
43226;SDS011;28839;52.404;9.808;2023-02-02T08:36:00;27.35;;;4.07;;
43226;SDS011;28839;52.404;9.808;2023-02-02T08:42:54;23.67;;;4.28;;
43226;SDS011;28839;52.404;9.808;2023-02-02T08:49:49;12.73;;;4.47;;
43226;SDS011;28839;52.404;9.808;2023-02-02T08:56:43;20.15;;;4.47;;
43226;SDS011;28839;52.404;9.808;2023-02-02T09:03:37;14.55;;;3.10;;
43226;SDS011;28839;52.404;9.808;2023-02-02T09:10:34;24.23;;;5.30;;
43226;SDS011;28839;52.404;9.808;2023-02-02T09:17:29;18.20;;;3.58;;
43226;SDS011;28839;52.404;9.808;2023-02-02T09:24:23;13.00;;;2.50;;
43226;SDS011;28839;52.404;9.808;2023-02-02T09:31:18;13.30;;;2.03;;
43226;SDS011;28839;52.404;9.808;2023-02-02T09:38:12;8.20;;;2.22;;
43226;SDS011;28839;52.404;9.808;2023-02-02T09:45:07;16.83;;;2.83;;
43226;SDS011;28839;52.404;9.808;2023-02-02T09:52:09;10.35;;;2.35;;
43226;SDS011;28839;52.404;9.808;2023-02-02T09:59:06;14.13;;;2.42;;
43226;SDS011;28839;52.404;9.808;2023-02-02T10:06:11;11.75;;;2.37;;
43226;SDS011;28839;52.404;9.808;2023-02-02T10:13:15;15.55;;;2.30;;
43226;SDS011;28839;52.404;9.808;2023-02-02T10:20:16;10.63;;;2.10;;
43226;SDS011;28839;52.404;9.808;2023-02-02T10:27:23;12.93;;;2.37;;
43226;SDS011;28839;52.404;9.808;2023-02-02T10:34:27;11.85;;;2.20;;
43226;SDS011;28839;52.404;9.808;2023-02-02T10:41:28;14.90;;;2.12;;
43226;SDS011;28839;52.404;9.808;2023-02-02T10:48:30;12.60;;;2.70;;
43226;SDS011;28839;52.404;9.808;2023-02-02T10:55:30;13.32;;;2.15;;
43226;SDS011;28839;52.404;9.808;2023-02-02T11:02:30;16.92;;;3.00;;
43226;SDS011;28839;52.404;9.808;2023-02-02T11:09:26;16.57;;;2.53;;
43226;SDS011;28839;52.404;9.808;2023-02-02T11:16:25;12.70;;;2.53;;
43226;SDS011;28839;52.404;9.808;2023-02-02T11:23:20;14.98;;;3.30;;
43226;SDS011;28839;52.404;9.808;2023-02-02T11:30:20;14.00;;;4.12;;
43226;SDS011;28839;52.404;9.808;2023-02-02T11:37:21;14.57;;;4.57;;
43226;SDS011;28839;52.404;9.808;2023-02-02T11:44:17;14.48;;;2.53;;
43226;SDS011;28839;52.404;9.808;2023-02-02T11:51:20;9.45;;;2.83;;
43226;SDS011;28839;52.404;9.808;2023-02-02T11:58:20;13.70;;;2.70;;
43226;SDS011;28839;52.404;9.808;2023-02-02T12:05:31;13.40;;;3.10;;
43226;SDS011;28839;52.404;9.808;2023-02-02T12:12:33;12.32;;;2.95;;
43226;SDS011;28839;52.404;9.808;2023-02-02T12:19:48;17.77;;;4.05;;
43226;SDS011;28839;52.404;9.808;2023-02-02T12:27:00;20.55;;;3.90;;
43226;SDS011;28839;52.404;9.808;2023-02-02T12:34:10;18.45;;;2.85;;
43226;SDS011;28839;52.404;9.808;2023-02-02T12:41:18;15.00;;;3.60;;
43226;SDS011;28839;52.404;9.808;2023-02-02T12:48:27;18.37;;;4.68;;
43226;SDS011;28839;52.404;9.808;2023-02-02T12:55:33;22.42;;;4.32;;
43226;SDS011;28839;52.404;9.808;2023-02-02T13:02:37;16.98;;;3.28;;
43226;SDS011;28839;52.404;9.808;2023-02-02T13:09:39;16.20;;;2.70;;
43226;SDS011;28839;52.404;9.808;2023-02-02T13:16:40;20.90;;;3.12;;
43226;SDS011;28839;52.404;9.808;2023-02-02T13:23:40;16.95;;;3.62;;
43226;SDS011;28839;52.404;9.808;2023-02-02T13:30:37;12.95;;;2.83;;
43226;SDS011;28839;52.404;9.808;2023-02-02T13:37:33;15.65;;;4.22;;
43226;SDS011;28839;52.404;9.808;2023-02-02T13:44:36;19.40;;;3.78;;
43226;SDS011;28839;52.404;9.808;2023-02-02T14:06:34;17.42;;;3.53;;
43226;SDS011;28839;52.404;9.808;2023-02-02T14:13:47;13.68;;;3.83;;
43226;SDS011;28839;52.404;9.808;2023-02-02T14:21:01;14.33;;;4.03;;
43226;SDS011;28839;52.404;9.808;2023-02-02T14:27:57;13.05;;;3.90;;
43226;SDS011;28839;52.404;9.808;2023-02-02T14:34:52;12.43;;;3.22;;
43226;SDS011;28839;52.404;9.808;2023-02-02T14:49:26;14.85;;;4.97;;
43226;SDS011;28839;52.404;9.808;2023-02-02T14:56:37;16.75;;;3.80;;
43226;SDS011;28839;52.404;9.808;2023-02-02T15:03:35;15.75;;;4.18;;
43226;SDS011;28839;52.404;9.808;2023-02-02T15:10:58;17.60;;;3.37;;
43226;SDS011;28839;52.404;9.808;2023-02-02T15:18:21;20.05;;;3.87;;
43226;SDS011;28839;52.404;9.808;2023-02-02T15:25:23;13.90;;;3.17;;
43226;SDS011;28839;52.404;9.808;2023-02-02T15:32:21;16.08;;;3.80;;
43226;SDS011;28839;52.404;9.808;2023-02-02T15:39:21;11.05;;;3.45;;
43226;SDS011;28839;52.404;9.808;2023-02-02T15:46:20;11.73;;;2.92;;
43226;SDS011;28839;52.404;9.808;2023-02-02T15:53:19;20.20;;;3.67;;
43226;SDS011;28839;52.404;9.808;2023-02-02T16:00:21;20.25;;;3.70;;
43226;SDS011;28839;52.404;9.808;2023-02-02T16:07:18;15.05;;;2.87;;
43226;SDS011;28839;52.404;9.808;2023-02-02T16:14:16;13.80;;;3.00;;
43226;SDS011;28839;52.404;9.808;2023-02-02T16:21:16;13.20;;;2.95;;
43226;SDS011;28839;52.404;9.808;2023-02-02T16:28:18;16.67;;;3.30;;
43226;SDS011;28839;52.404;9.808;2023-02-02T16:35:30;11.55;;;2.80;;
43226;SDS011;28839;52.404;9.808;2023-02-02T16:42:26;12.73;;;2.95;;
43226;SDS011;28839;52.404;9.808;2023-02-02T16:49:21;14.48;;;3.03;;
43226;SDS011;28839;52.404;9.808;2023-02-02T16:56:21;16.55;;;3.15;;
43226;SDS011;28839;52.404;9.808;2023-02-02T17:03:19;11.27;;;3.12;;
43226;SDS011;28839;52.404;9.808;2023-02-02T17:10:19;15.70;;;3.50;;
43226;SDS011;28839;52.404;9.808;2023-02-02T17:17:17;14.68;;;4.03;;
43226;SDS011;28839;52.404;9.808;2023-02-02T17:24:11;12.45;;;2.87;;
43226;SDS011;28839;52.404;9.808;2023-02-02T17:31:05;15.23;;;3.35;;
43226;SDS011;28839;52.404;9.808;2023-02-02T17:38:02;10.13;;;2.37;;
43226;SDS011;28839;52.404;9.808;2023-02-02T17:44:57;14.15;;;2.60;;
43226;SDS011;28839;52.404;9.808;2023-02-02T17:51:51;12.27;;;3.47;;
43226;SDS011;28839;52.404;9.808;2023-02-02T17:58:47;15.95;;;4.35;;
43226;SDS011;28839;52.404;9.808;2023-02-02T18:05:42;11.15;;;3.30;;
43226;SDS011;28839;52.404;9.808;2023-02-02T18:12:36;13.07;;;3.37;;
43226;SDS011;28839;52.404;9.808;2023-02-02T18:19:31;11.00;;;3.90;;
43226;SDS011;28839;52.404;9.808;2023-02-02T18:26:25;17.08;;;3.80;;
43226;SDS011;28839;52.404;9.808;2023-02-02T18:33:29;13.18;;;3.53;;
43226;SDS011;28839;52.404;9.808;2023-02-02T18:40:54;17.08;;;3.83;;
43226;SDS011;28839;52.404;9.808;2023-02-02T18:47:48;18.37;;;6.43;;
43226;SDS011;28839;52.404;9.808;2023-02-02T18:54:42;35.72;;;12.77;;
43226;SDS011;28839;52.404;9.808;2023-02-02T19:01:37;9.40;;;3.92;;
43226;SDS011;28839;52.404;9.808;2023-02-02T19:08:31;16.45;;;4.18;;
43226;SDS011;28839;52.404;9.808;2023-02-02T19:15:25;14.23;;;4.80;;
43226;SDS011;28839;52.404;9.808;2023-02-02T19:22:21;13.43;;;4.90;;
43226;SDS011;28839;52.404;9.808;2023-02-02T19:29:21;14.85;;;4.85;;
43226;SDS011;28839;52.404;9.808;2023-02-02T19:36:17;10.65;;;4.25;;
43226;SDS011;28839;52.404;9.808;2023-02-02T19:43:17;12.32;;;5.15;;
43226;SDS011;28839;52.404;9.808;2023-02-02T19:50:17;12.23;;;4.82;;
43226;SDS011;28839;52.404;9.808;2023-02-02T19:57:14;16.40;;;3.60;;
43226;SDS011;28839;52.404;9.808;2023-02-02T20:04:14;11.48;;;3.70;;
43226;SDS011;28839;52.404;9.808;2023-02-02T20:11:14;17.12;;;5.93;;
43226;SDS011;28839;52.404;9.808;2023-02-02T20:18:32;15.45;;;5.43;;
43226;SDS011;28839;52.404;9.808;2023-02-02T20:25:33;22.20;;;7.93;;
43226;SDS011;28839;52.404;9.808;2023-02-02T20:32:33;36.00;;;15.35;;
43226;SDS011;28839;52.404;9.808;2023-02-02T20:39:31;8.52;;;3.87;;
43226;SDS011;28839;52.404;9.808;2023-02-02T20:46:28;10.07;;;4.28;;
43226;SDS011;28839;52.404;9.808;2023-02-02T20:53:22;11.30;;;4.72;;
43226;SDS011;28839;52.404;9.808;2023-02-02T21:00:16;12.80;;;5.20;;
43226;SDS011;28839;52.404;9.808;2023-02-02T21:07:14;10.85;;;6.03;;
43226;SDS011;28839;52.404;9.808;2023-02-02T21:14:09;14.87;;;6.93;;
43226;SDS011;28839;52.404;9.808;2023-02-02T21:21:03;16.70;;;10.38;;
43226;SDS011;28839;52.404;9.808;2023-02-02T21:27:58;9.10;;;5.30;;
43226;SDS011;28839;52.404;9.808;2023-02-02T21:34:52;22.80;;;13.10;;
43226;SDS011;28839;52.404;9.808;2023-02-02T21:41:46;13.90;;;7.43;;
43226;SDS011;28839;52.404;9.808;2023-02-02T21:48:42;10.32;;;7.93;;
43226;SDS011;28839;52.404;9.808;2023-02-02T21:55:37;10.40;;;6.68;;
43226;SDS011;28839;52.404;9.808;2023-02-02T22:02:36;11.85;;;7.55;;
43226;SDS011;28839;52.404;9.808;2023-02-02T22:09:37;9.77;;;6.43;;
43226;SDS011;28839;52.404;9.808;2023-02-02T22:16:32;12.45;;;7.53;;
43226;SDS011;28839;52.404;9.808;2023-02-02T22:23:33;9.23;;;6.32;;
43226;SDS011;28839;52.404;9.808;2023-02-02T22:30:32;10.82;;;7.57;;
43226;SDS011;28839;52.404;9.808;2023-02-02T22:37:28;12.73;;;7.62;;
43226;SDS011;28839;52.404;9.808;2023-02-02T22:44:21;10.27;;;7.72;;
43226;SDS011;28839;52.404;9.808;2023-02-02T22:51:17;13.27;;;9.02;;
43226;SDS011;28839;52.404;9.808;2023-02-02T22:58:11;14.20;;;9.32;;
43226;SDS011;28839;52.404;9.808;2023-02-02T23:05:05;24.27;;;13.82;;
43226;SDS011;28839;52.404;9.808;2023-02-02T23:12:02;26.05;;;14.18;;
43226;SDS011;28839;52.404;9.808;2023-02-02T23:18:56;31.40;;;17.00;;
43226;SDS011;28839;52.404;9.808;2023-02-02T23:25:50;25.60;;;13.90;;
43226;SDS011;28839;52.404;9.808;2023-02-02T23:32:45;28.67;;;18.15;;
43226;SDS011;28839;52.404;9.808;2023-02-02T23:39:39;29.67;;;19.37;;
43226;SDS011;28839;52.404;9.808;2023-02-02T23:46:33;28.92;;;19.75;;
43226;SDS011;28839;52.404;9.808;2023-02-02T23:53:30;57.55;;;14.55;;
